sensor_id;sensor_type;location;lat;lon;timestamp;P1;durP1;ratioP1;P2;durP2;ratioP2
55314;SDS011;41619;42.816;23.226;2023-07-22T00:01:35;27.55;;;8.73;;
55314;SDS011;41619;42.816;23.226;2023-07-22T00:04:01;19.10;;;7.50;;
55314;SDS011;41619;42.816;23.226;2023-07-22T00:06:27;16.58;;;7.22;;
55314;SDS011;41619;42.816;23.226;2023-07-22T00:08:52;25.52;;;7.22;;
55314;SDS011;41619;42.816;23.226;2023-07-22T00:11:18;21.90;;;7.50;;
55314;SDS011;41619;42.816;23.226;2023-07-22T00:13:45;15.25;;;7.50;;
55314;SDS011;41619;42.816;23.226;2023-07-22T00:16:10;25.25;;;8.30;;
55314;SDS011;41619;42.816;23.226;2023-07-22T00:18:36;17.67;;;6.90;;
55314;SDS011;41619;42.816;23.226;2023-07-22T00:21:01;17.75;;;6.68;;
55314;SDS011;41619;42.816;23.226;2023-07-22T00:23:27;16.95;;;6.75;;
55314;SDS011;41619;42.816;23.226;2023-07-22T00:25:52;11.82;;;5.65;;
55314;SDS011;41619;42.816;23.226;2023-07-22T00:28:18;17.85;;;6.28;;
55314;SDS011;41619;42.816;23.226;2023-07-22T00:30:43;16.88;;;6.30;;
55314;SDS011;41619;42.816;23.226;2023-07-22T00:33:09;19.60;;;6.65;;
55314;SDS011;41619;42.816;23.226;2023-07-22T00:35:34;9.98;;;5.95;;
55314;SDS011;41619;42.816;23.226;2023-07-22T00:38:00;14.65;;;6.15;;
55314;SDS011;41619;42.816;23.226;2023-07-22T00:40:26;106.13;;;9.95;;
55314;SDS011;41619;42.816;23.226;2023-07-22T00:42:53;22.30;;;6.40;;
55314;SDS011;41619;42.816;23.226;2023-07-22T00:45:18;13.75;;;6.15;;
55314;SDS011;41619;42.816;23.226;2023-07-22T00:47:44;14.48;;;5.80;;
55314;SDS011;41619;42.816;23.226;2023-07-22T00:50:10;13.50;;;6.03;;
55314;SDS011;41619;42.816;23.226;2023-07-22T00:52:36;13.20;;;6.30;;
55314;SDS011;41619;42.816;23.226;2023-07-22T00:55:02;14.30;;;5.72;;
55314;SDS011;41619;42.816;23.226;2023-07-22T00:57:30;13.85;;;6.80;;
55314;SDS011;41619;42.816;23.226;2023-07-22T00:59:55;20.33;;;6.75;;
55314;SDS011;41619;42.816;23.226;2023-07-22T01:02:21;13.00;;;6.90;;
55314;SDS011;41619;42.816;23.226;2023-07-22T01:04:47;14.27;;;5.97;;
55314;SDS011;41619;42.816;23.226;2023-07-22T01:07:13;17.63;;;6.82;;
55314;SDS011;41619;42.816;23.226;2023-07-22T01:09:40;16.05;;;6.32;;
55314;SDS011;41619;42.816;23.226;2023-07-22T01:12:07;18.95;;;6.35;;
55314;SDS011;41619;42.816;23.226;2023-07-22T01:14:38;10.27;;;6.13;;
55314;SDS011;41619;42.816;23.226;2023-07-22T01:17:05;20.58;;;7.57;;
55314;SDS011;41619;42.816;23.226;2023-07-22T01:19:32;23.35;;;8.75;;
55314;SDS011;41619;42.816;23.226;2023-07-22T01:22:01;15.90;;;8.52;;
55314;SDS011;41619;42.816;23.226;2023-07-22T01:24:28;20.25;;;8.00;;
55314;SDS011;41619;42.816;23.226;2023-07-22T01:26:54;17.42;;;8.65;;
55314;SDS011;41619;42.816;23.226;2023-07-22T01:29:21;16.67;;;7.80;;
55314;SDS011;41619;42.816;23.226;2023-07-22T01:31:49;15.77;;;7.05;;
55314;SDS011;41619;42.816;23.226;2023-07-22T01:34:18;16.10;;;6.93;;
55314;SDS011;41619;42.816;23.226;2023-07-22T01:36:45;15.50;;;7.88;;
55314;SDS011;41619;42.816;23.226;2023-07-22T01:39:11;15.57;;;7.78;;
55314;SDS011;41619;42.816;23.226;2023-07-22T01:41:36;15.80;;;8.35;;
55314;SDS011;41619;42.816;23.226;2023-07-22T01:44:02;21.58;;;8.38;;
55314;SDS011;41619;42.816;23.226;2023-07-22T01:46:28;22.73;;;8.13;;
55314;SDS011;41619;42.816;23.226;2023-07-22T01:48:53;21.40;;;9.15;;
55314;SDS011;41619;42.816;23.226;2023-07-22T01:51:20;19.05;;;8.18;;
55314;SDS011;41619;42.816;23.226;2023-07-22T01:53:46;23.27;;;8.75;;
55314;SDS011;41619;42.816;23.226;2023-07-22T01:56:11;22.50;;;9.25;;
55314;SDS011;41619;42.816;23.226;2023-07-22T01:58:37;17.70;;;8.20;;
55314;SDS011;41619;42.816;23.226;2023-07-22T02:01:02;25.00;;;9.13;;
55314;SDS011;41619;42.816;23.226;2023-07-22T02:03:27;21.88;;;8.15;;
55314;SDS011;41619;42.816;23.226;2023-07-22T02:05:53;18.70;;;8.55;;
55314;SDS011;41619;42.816;23.226;2023-07-22T02:08:19;22.40;;;9.00;;
55314;SDS011;41619;42.816;23.226;2023-07-22T02:10:44;18.40;;;8.50;;
55314;SDS011;41619;42.816;23.226;2023-07-22T02:13:10;29.13;;;8.77;;
55314;SDS011;41619;42.816;23.226;2023-07-22T02:15:36;27.52;;;8.77;;
55314;SDS011;41619;42.816;23.226;2023-07-22T02:18:01;23.10;;;8.75;;
55314;SDS011;41619;42.816;23.226;2023-07-22T02:20:27;16.90;;;9.20;;
55314;SDS011;41619;42.816;23.226;2023-07-22T02:22:54;24.90;;;8.40;;
55314;SDS011;41619;42.816;23.226;2023-07-22T02:25:20;21.77;;;8.70;;
55314;SDS011;41619;42.816;23.226;2023-07-22T02:27:45;23.63;;;9.15;;
55314;SDS011;41619;42.816;23.226;2023-07-22T02:30:11;20.95;;;8.35;;
55314;SDS011;41619;42.816;23.226;2023-07-22T02:32:39;19.75;;;8.23;;
55314;SDS011;41619;42.816;23.226;2023-07-22T02:35:06;19.85;;;8.27;;
55314;SDS011;41619;42.816;23.226;2023-07-22T02:37:33;21.25;;;8.45;;
55314;SDS011;41619;42.816;23.226;2023-07-22T02:39:59;23.40;;;8.77;;
55314;SDS011;41619;42.816;23.226;2023-07-22T02:42:24;19.20;;;9.13;;
55314;SDS011;41619;42.816;23.226;2023-07-22T02:44:50;18.33;;;8.35;;
55314;SDS011;41619;42.816;23.226;2023-07-22T02:47:15;17.33;;;8.20;;
55314;SDS011;41619;42.816;23.226;2023-07-22T02:49:41;24.30;;;8.98;;
55314;SDS011;41619;42.816;23.226;2023-07-22T02:52:06;15.45;;;8.45;;
55314;SDS011;41619;42.816;23.226;2023-07-22T02:54:32;20.67;;;8.55;;
55314;SDS011;41619;42.816;23.226;2023-07-22T02:57:02;21.05;;;8.43;;
55314;SDS011;41619;42.816;23.226;2023-07-22T02:59:28;20.60;;;9.10;;
55314;SDS011;41619;42.816;23.226;2023-07-22T03:01:54;20.95;;;8.50;;
55314;SDS011;41619;42.816;23.226;2023-07-22T03:04:19;19.60;;;8.63;;
55314;SDS011;41619;42.816;23.226;2023-07-22T03:06:44;26.15;;;8.52;;
55314;SDS011;41619;42.816;23.226;2023-07-22T03:09:10;15.30;;;8.68;;
55314;SDS011;41619;42.816;23.226;2023-07-22T03:11:36;21.40;;;8.85;;
55314;SDS011;41619;42.816;23.226;2023-07-22T03:14:01;20.30;;;8.38;;
55314;SDS011;41619;42.816;23.226;2023-07-22T03:16:27;19.52;;;8.77;;
55314;SDS011;41619;42.816;23.226;2023-07-22T03:18:52;21.30;;;8.32;;
55314;SDS011;41619;42.816;23.226;2023-07-22T03:21:17;19.98;;;8.27;;
55314;SDS011;41619;42.816;23.226;2023-07-22T03:23:43;20.85;;;8.90;;
55314;SDS011;41619;42.816;23.226;2023-07-22T03:26:08;21.35;;;7.95;;
55314;SDS011;41619;42.816;23.226;2023-07-22T03:28:34;22.98;;;7.90;;
55314;SDS011;41619;42.816;23.226;2023-07-22T03:31:00;21.13;;;8.93;;
55314;SDS011;41619;42.816;23.226;2023-07-22T03:33:25;17.58;;;8.23;;
55314;SDS011;41619;42.816;23.226;2023-07-22T03:35:51;18.15;;;8.85;;
55314;SDS011;41619;42.816;23.226;2023-07-22T03:38:16;28.90;;;8.90;;
55314;SDS011;41619;42.816;23.226;2023-07-22T03:40:42;20.30;;;8.40;;
55314;SDS011;41619;42.816;23.226;2023-07-22T03:43:07;28.35;;;9.35;;
55314;SDS011;41619;42.816;23.226;2023-07-22T03:45:32;24.35;;;9.57;;
55314;SDS011;41619;42.816;23.226;2023-07-22T03:47:58;26.17;;;9.18;;
55314;SDS011;41619;42.816;23.226;2023-07-22T03:50:25;41.53;;;9.43;;
55314;SDS011;41619;42.816;23.226;2023-07-22T03:52:52;24.38;;;9.57;;
55314;SDS011;41619;42.816;23.226;2023-07-22T03:55:17;29.23;;;8.85;;
55314;SDS011;41619;42.816;23.226;2023-07-22T03:57:44;24.00;;;8.88;;
55314;SDS011;41619;42.816;23.226;2023-07-22T04:00:10;31.75;;;8.73;;
55314;SDS011;41619;42.816;23.226;2023-07-22T04:02:35;19.38;;;8.63;;
55314;SDS011;41619;42.816;23.226;2023-07-22T04:05:01;26.17;;;9.57;;
55314;SDS011;41619;42.816;23.226;2023-07-22T04:07:27;23.80;;;10.18;;
55314;SDS011;41619;42.816;23.226;2023-07-22T04:09:52;27.67;;;9.77;;
55314;SDS011;41619;42.816;23.226;2023-07-22T04:12:18;24.80;;;9.93;;
55314;SDS011;41619;42.816;23.226;2023-07-22T04:14:43;20.95;;;9.27;;
55314;SDS011;41619;42.816;23.226;2023-07-22T04:17:09;22.70;;;10.07;;
55314;SDS011;41619;42.816;23.226;2023-07-22T04:19:34;27.98;;;10.07;;
55314;SDS011;41619;42.816;23.226;2023-07-22T04:22:00;19.48;;;9.23;;
55314;SDS011;41619;42.816;23.226;2023-07-22T04:24:29;18.75;;;9.25;;
55314;SDS011;41619;42.816;23.226;2023-07-22T04:26:56;15.40;;;8.73;;
55314;SDS011;41619;42.816;23.226;2023-07-22T04:29:21;19.00;;;9.30;;
55314;SDS011;41619;42.816;23.226;2023-07-22T04:31:47;27.35;;;9.38;;
55314;SDS011;41619;42.816;23.226;2023-07-22T04:34:12;22.88;;;10.65;;
55314;SDS011;41619;42.816;23.226;2023-07-22T04:36:38;19.40;;;9.38;;
55314;SDS011;41619;42.816;23.226;2023-07-22T04:39:03;19.50;;;8.93;;
55314;SDS011;41619;42.816;23.226;2023-07-22T04:41:33;21.08;;;9.60;;
55314;SDS011;41619;42.816;23.226;2023-07-22T04:43:58;26.30;;;9.95;;
55314;SDS011;41619;42.816;23.226;2023-07-22T04:46:26;21.42;;;9.35;;
55314;SDS011;41619;42.816;23.226;2023-07-22T04:48:55;28.13;;;9.68;;
55314;SDS011;41619;42.816;23.226;2023-07-22T04:51:23;22.50;;;9.55;;
55314;SDS011;41619;42.816;23.226;2023-07-22T04:53:48;19.83;;;9.63;;
55314;SDS011;41619;42.816;23.226;2023-07-22T04:56:13;26.13;;;10.02;;
55314;SDS011;41619;42.816;23.226;2023-07-22T04:58:39;22.63;;;10.07;;
55314;SDS011;41619;42.816;23.226;2023-07-22T05:01:04;33.47;;;10.60;;
55314;SDS011;41619;42.816;23.226;2023-07-22T05:03:30;18.27;;;9.50;;
55314;SDS011;41619;42.816;23.226;2023-07-22T05:05:55;29.33;;;11.75;;
55314;SDS011;41619;42.816;23.226;2023-07-22T05:08:22;28.08;;;10.65;;
55314;SDS011;41619;42.816;23.226;2023-07-22T05:10:48;29.25;;;9.75;;
55314;SDS011;41619;42.816;23.226;2023-07-22T05:13:13;34.78;;;10.07;;
55314;SDS011;41619;42.816;23.226;2023-07-22T05:15:39;21.60;;;9.00;;
55314;SDS011;41619;42.816;23.226;2023-07-22T05:18:04;30.42;;;10.23;;
55314;SDS011;41619;42.816;23.226;2023-07-22T05:20:30;25.77;;;9.75;;
55314;SDS011;41619;42.816;23.226;2023-07-22T05:22:55;22.02;;;9.80;;
55314;SDS011;41619;42.816;23.226;2023-07-22T05:25:20;34.40;;;9.85;;
55314;SDS011;41619;42.816;23.226;2023-07-22T05:27:46;24.08;;;10.63;;
55314;SDS011;41619;42.816;23.226;2023-07-22T05:30:11;22.20;;;9.27;;
55314;SDS011;41619;42.816;23.226;2023-07-22T05:32:37;27.33;;;8.85;;
55314;SDS011;41619;42.816;23.226;2023-07-22T05:35:02;25.85;;;10.32;;
55314;SDS011;41619;42.816;23.226;2023-07-22T05:37:30;27.05;;;9.70;;
55314;SDS011;41619;42.816;23.226;2023-07-22T05:39:56;19.88;;;9.40;;
55314;SDS011;41619;42.816;23.226;2023-07-22T05:42:22;24.17;;;9.35;;
55314;SDS011;41619;42.816;23.226;2023-07-22T05:44:48;15.15;;;8.88;;
55314;SDS011;41619;42.816;23.226;2023-07-22T05:47:14;24.85;;;9.93;;
55314;SDS011;41619;42.816;23.226;2023-07-22T05:49:39;21.70;;;9.57;;
55314;SDS011;41619;42.816;23.226;2023-07-22T05:52:05;15.77;;;8.20;;
55314;SDS011;41619;42.816;23.226;2023-07-22T05:54:30;18.90;;;9.38;;
55314;SDS011;41619;42.816;23.226;2023-07-22T05:56:56;21.33;;;8.07;;
55314;SDS011;41619;42.816;23.226;2023-07-22T05:59:21;22.40;;;9.25;;
55314;SDS011;41619;42.816;23.226;2023-07-22T06:01:47;26.35;;;8.13;;
55314;SDS011;41619;42.816;23.226;2023-07-22T06:04:12;19.13;;;8.38;;
55314;SDS011;41619;42.816;23.226;2023-07-22T06:06:38;15.23;;;8.10;;
55314;SDS011;41619;42.816;23.226;2023-07-22T06:09:03;19.58;;;8.43;;
55314;SDS011;41619;42.816;23.226;2023-07-22T06:11:29;21.30;;;8.52;;
55314;SDS011;41619;42.816;23.226;2023-07-22T06:13:55;15.82;;;7.78;;
55314;SDS011;41619;42.816;23.226;2023-07-22T06:16:20;12.93;;;7.32;;
55314;SDS011;41619;42.816;23.226;2023-07-22T06:18:46;15.40;;;7.97;;
55314;SDS011;41619;42.816;23.226;2023-07-22T06:21:11;16.25;;;8.23;;
55314;SDS011;41619;42.816;23.226;2023-07-22T06:23:37;22.85;;;8.20;;
55314;SDS011;41619;42.816;23.226;2023-07-22T06:26:02;12.57;;;8.45;;
55314;SDS011;41619;42.816;23.226;2023-07-22T06:28:27;16.75;;;8.13;;
55314;SDS011;41619;42.816;23.226;2023-07-22T06:30:53;20.52;;;9.13;;
55314;SDS011;41619;42.816;23.226;2023-07-22T06:33:18;15.68;;;8.45;;
55314;SDS011;41619;42.816;23.226;2023-07-22T06:35:43;13.38;;;8.15;;
55314;SDS011;41619;42.816;23.226;2023-07-22T06:38:09;17.10;;;8.05;;
55314;SDS011;41619;42.816;23.226;2023-07-22T06:40:34;16.75;;;8.32;;
55314;SDS011;41619;42.816;23.226;2023-07-22T06:43:00;18.35;;;8.63;;
55314;SDS011;41619;42.816;23.226;2023-07-22T06:45:25;18.17;;;7.53;;
55314;SDS011;41619;42.816;23.226;2023-07-22T06:47:50;16.50;;;7.90;;
55314;SDS011;41619;42.816;23.226;2023-07-22T06:50:16;18.48;;;7.70;;
55314;SDS011;41619;42.816;23.226;2023-07-22T06:52:41;15.05;;;8.13;;
55314;SDS011;41619;42.816;23.226;2023-07-22T06:55:06;17.52;;;7.30;;
55314;SDS011;41619;42.816;23.226;2023-07-22T06:57:32;22.88;;;8.48;;
55314;SDS011;41619;42.816;23.226;2023-07-22T06:59:58;12.60;;;7.90;;
55314;SDS011;41619;42.816;23.226;2023-07-22T07:02:23;22.35;;;8.88;;
55314;SDS011;41619;42.816;23.226;2023-07-22T07:04:49;14.00;;;7.60;;
55314;SDS011;41619;42.816;23.226;2023-07-22T07:07:15;13.32;;;7.85;;
55314;SDS011;41619;42.816;23.226;2023-07-22T07:09:41;22.00;;;8.93;;
55314;SDS011;41619;42.816;23.226;2023-07-22T07:12:07;18.15;;;8.40;;
55314;SDS011;41619;42.816;23.226;2023-07-22T07:14:33;16.65;;;8.52;;
55314;SDS011;41619;42.816;23.226;2023-07-22T07:17:00;21.15;;;8.23;;
55314;SDS011;41619;42.816;23.226;2023-07-22T07:19:26;26.23;;;8.52;;
55314;SDS011;41619;42.816;23.226;2023-07-22T07:21:51;20.77;;;8.55;;
55314;SDS011;41619;42.816;23.226;2023-07-22T07:24:17;15.45;;;7.85;;
55314;SDS011;41619;42.816;23.226;2023-07-22T07:26:42;16.02;;;8.10;;
55314;SDS011;41619;42.816;23.226;2023-07-22T07:29:08;17.08;;;8.55;;
55314;SDS011;41619;42.816;23.226;2023-07-22T07:31:33;13.27;;;8.20;;
55314;SDS011;41619;42.816;23.226;2023-07-22T07:33:58;56.25;;;10.45;;
55314;SDS011;41619;42.816;23.226;2023-07-22T07:36:24;14.80;;;8.13;;
55314;SDS011;41619;42.816;23.226;2023-07-22T07:38:49;16.17;;;8.02;;
55314;SDS011;41619;42.816;23.226;2023-07-22T07:41:14;19.48;;;8.43;;
55314;SDS011;41619;42.816;23.226;2023-07-22T07:43:40;17.95;;;8.07;;
55314;SDS011;41619;42.816;23.226;2023-07-22T07:46:13;19.52;;;8.52;;
55314;SDS011;41619;42.816;23.226;2023-07-22T07:48:42;17.58;;;8.52;;
55314;SDS011;41619;42.816;23.226;2023-07-22T07:51:08;16.00;;;8.45;;
55314;SDS011;41619;42.816;23.226;2023-07-22T07:53:34;18.08;;;8.82;;
55314;SDS011;41619;42.816;23.226;2023-07-22T07:55:59;14.40;;;9.23;;
55314;SDS011;41619;42.816;23.226;2023-07-22T07:58:25;30.70;;;9.55;;
55314;SDS011;41619;42.816;23.226;2023-07-22T08:00:50;17.63;;;8.13;;
55314;SDS011;41619;42.816;23.226;2023-07-22T08:03:16;27.63;;;10.57;;
55314;SDS011;41619;42.816;23.226;2023-07-22T08:05:41;21.83;;;9.68;;
55314;SDS011;41619;42.816;23.226;2023-07-22T08:08:06;21.55;;;8.77;;
55314;SDS011;41619;42.816;23.226;2023-07-22T08:10:32;24.90;;;8.93;;
55314;SDS011;41619;42.816;23.226;2023-07-22T08:12:57;24.27;;;8.55;;
55314;SDS011;41619;42.816;23.226;2023-07-22T08:15:22;24.70;;;8.95;;
55314;SDS011;41619;42.816;23.226;2023-07-22T08:17:48;20.90;;;9.15;;
55314;SDS011;41619;42.816;23.226;2023-07-22T08:20:13;18.15;;;8.90;;
55314;SDS011;41619;42.816;23.226;2023-07-22T08:22:39;18.70;;;8.88;;
55314;SDS011;41619;42.816;23.226;2023-07-22T08:25:04;17.95;;;9.38;;
55314;SDS011;41619;42.816;23.226;2023-07-22T08:27:30;17.92;;;8.85;;
55314;SDS011;41619;42.816;23.226;2023-07-22T08:29:55;24.33;;;9.73;;
55314;SDS011;41619;42.816;23.226;2023-07-22T08:32:21;21.88;;;9.45;;
55314;SDS011;41619;42.816;23.226;2023-07-22T08:34:46;23.42;;;9.68;;
55314;SDS011;41619;42.816;23.226;2023-07-22T08:37:11;33.53;;;10.48;;
55314;SDS011;41619;42.816;23.226;2023-07-22T08:39:37;31.10;;;10.07;;
55314;SDS011;41619;42.816;23.226;2023-07-22T08:42:03;24.02;;;10.68;;
55314;SDS011;41619;42.816;23.226;2023-07-22T08:44:31;19.17;;;8.95;;
55314;SDS011;41619;42.816;23.226;2023-07-22T08:47:00;31.70;;;9.80;;
55314;SDS011;41619;42.816;23.226;2023-07-22T08:49:29;20.98;;;10.05;;
55314;SDS011;41619;42.816;23.226;2023-07-22T08:51:55;18.80;;;9.32;;
55314;SDS011;41619;42.816;23.226;2023-07-22T08:54:24;23.05;;;9.93;;
55314;SDS011;41619;42.816;23.226;2023-07-22T08:56:50;23.92;;;10.05;;
55314;SDS011;41619;42.816;23.226;2023-07-22T08:59:19;16.52;;;9.05;;
55314;SDS011;41619;42.816;23.226;2023-07-22T09:01:45;17.90;;;9.18;;
55314;SDS011;41619;42.816;23.226;2023-07-22T09:04:13;28.60;;;9.35;;
55314;SDS011;41619;42.816;23.226;2023-07-22T09:06:38;24.63;;;8.75;;
55314;SDS011;41619;42.816;23.226;2023-07-22T09:09:04;23.58;;;9.05;;
55314;SDS011;41619;42.816;23.226;2023-07-22T09:13:59;20.35;;;8.93;;
55314;SDS011;41619;42.816;23.226;2023-07-22T09:16:26;16.60;;;9.10;;
55314;SDS011;41619;42.816;23.226;2023-07-22T09:18:59;30.95;;;10.02;;
55314;SDS011;41619;42.816;23.226;2023-07-22T09:21:24;22.58;;;9.32;;
55314;SDS011;41619;42.816;23.226;2023-07-22T09:23:50;23.33;;;10.15;;
55314;SDS011;41619;42.816;23.226;2023-07-22T09:26:17;26.52;;;10.75;;
55314;SDS011;41619;42.816;23.226;2023-07-22T09:29:04;28.10;;;8.83;;
55314;SDS011;41619;42.816;23.226;2023-07-22T09:31:28;28.90;;;9.45;;
55314;SDS011;41619;42.816;23.226;2023-07-22T09:33:54;25.92;;;10.02;;
55314;SDS011;41619;42.816;23.226;2023-07-22T09:36:19;21.90;;;9.65;;
55314;SDS011;41619;42.816;23.226;2023-07-22T09:38:45;20.10;;;8.38;;
55314;SDS011;41619;42.816;23.226;2023-07-22T09:41:24;34.67;;;9.80;;
55314;SDS011;41619;42.816;23.226;2023-07-22T09:43:53;26.48;;;9.05;;
55314;SDS011;41619;42.816;23.226;2023-07-22T09:46:18;23.27;;;8.30;;
55314;SDS011;41619;42.816;23.226;2023-07-22T09:48:44;27.98;;;9.15;;
55314;SDS011;41619;42.816;23.226;2023-07-22T09:51:16;24.52;;;9.40;;
55314;SDS011;41619;42.816;23.226;2023-07-22T09:53:48;29.40;;;8.75;;
55314;SDS011;41619;42.816;23.226;2023-07-22T09:56:25;26.40;;;8.48;;
55314;SDS011;41619;42.816;23.226;2023-07-22T09:58:51;28.23;;;9.75;;
55314;SDS011;41619;42.816;23.226;2023-07-22T10:01:22;28.20;;;9.80;;
55314;SDS011;41619;42.816;23.226;2023-07-22T10:03:53;21.40;;;9.27;;
55314;SDS011;41619;42.816;23.226;2023-07-22T10:06:28;25.75;;;9.13;;
55314;SDS011;41619;42.816;23.226;2023-07-22T10:08:55;24.88;;;8.93;;
55314;SDS011;41619;42.816;23.226;2023-07-22T10:11:25;24.92;;;8.63;;
55314;SDS011;41619;42.816;23.226;2023-07-22T10:13:52;22.63;;;8.65;;
55314;SDS011;41619;42.816;23.226;2023-07-22T10:16:18;24.35;;;8.43;;
55314;SDS011;41619;42.816;23.226;2023-07-22T10:18:43;28.27;;;8.55;;
55314;SDS011;41619;42.816;23.226;2023-07-22T10:21:11;21.60;;;7.78;;
55314;SDS011;41619;42.816;23.226;2023-07-22T10:23:38;22.67;;;7.68;;
55314;SDS011;41619;42.816;23.226;2023-07-22T10:26:03;22.20;;;8.07;;
55314;SDS011;41619;42.816;23.226;2023-07-22T10:28:30;28.48;;;8.90;;
55314;SDS011;41619;42.816;23.226;2023-07-22T10:30:56;20.70;;;7.78;;
55314;SDS011;41619;42.816;23.226;2023-07-22T10:33:22;17.27;;;7.57;;
55314;SDS011;41619;42.816;23.226;2023-07-22T10:36:02;30.27;;;8.65;;
55314;SDS011;41619;42.816;23.226;2023-07-22T10:38:30;20.48;;;7.75;;
55314;SDS011;41619;42.816;23.226;2023-07-22T10:40:56;31.63;;;7.18;;
55314;SDS011;41619;42.816;23.226;2023-07-22T10:43:25;25.45;;;8.05;;
55314;SDS011;41619;42.816;23.226;2023-07-22T10:45:53;26.80;;;6.80;;
55314;SDS011;41619;42.816;23.226;2023-07-22T10:48:20;27.17;;;7.78;;
55314;SDS011;41619;42.816;23.226;2023-07-22T10:50:48;27.30;;;6.32;;
55314;SDS011;41619;42.816;23.226;2023-07-22T11:01:21;26.35;;;6.50;;
55314;SDS011;41619;42.816;23.226;2023-07-22T11:14:24;21.60;;;6.28;;
55314;SDS011;41619;42.816;23.226;2023-07-22T11:16:51;24.73;;;7.03;;
55314;SDS011;41619;42.816;23.226;2023-07-22T11:19:18;28.30;;;6.93;;
55314;SDS011;41619;42.816;23.226;2023-07-22T11:21:46;26.33;;;6.28;;
55314;SDS011;41619;42.816;23.226;2023-07-22T11:24:13;19.10;;;6.70;;
55314;SDS011;41619;42.816;23.226;2023-07-22T11:26:39;24.48;;;6.45;;
55314;SDS011;41619;42.816;23.226;2023-07-22T11:29:05;26.85;;;6.97;;
55314;SDS011;41619;42.816;23.226;2023-07-22T11:31:35;24.90;;;6.32;;
55314;SDS011;41619;42.816;23.226;2023-07-22T11:34:03;29.98;;;6.82;;
55314;SDS011;41619;42.816;23.226;2023-07-22T11:36:29;26.90;;;7.05;;
55314;SDS011;41619;42.816;23.226;2023-07-22T11:39:03;35.75;;;6.60;;
55314;SDS011;41619;42.816;23.226;2023-07-22T11:41:33;27.50;;;6.50;;
55314;SDS011;41619;42.816;23.226;2023-07-22T11:43:59;23.83;;;7.80;;
55314;SDS011;41619;42.816;23.226;2023-07-22T11:46:29;26.98;;;6.97;;
55314;SDS011;41619;42.816;23.226;2023-07-22T11:48:55;26.00;;;6.68;;
55314;SDS011;41619;42.816;23.226;2023-07-22T11:51:22;22.38;;;6.32;;
55314;SDS011;41619;42.816;23.226;2023-07-22T11:53:52;37.20;;;7.43;;
55314;SDS011;41619;42.816;23.226;2023-07-22T11:58:47;32.50;;;6.47;;
55314;SDS011;41619;42.816;23.226;2023-07-22T12:01:14;30.15;;;7.18;;
55314;SDS011;41619;42.816;23.226;2023-07-22T12:03:40;37.50;;;7.90;;
55314;SDS011;41619;42.816;23.226;2023-07-22T12:06:06;36.78;;;8.27;;
55314;SDS011;41619;42.816;23.226;2023-07-22T12:08:35;26.80;;;6.90;;
55314;SDS011;41619;42.816;23.226;2023-07-22T12:11:02;32.03;;;6.90;;
55314;SDS011;41619;42.816;23.226;2023-07-22T12:13:29;32.47;;;6.85;;
55314;SDS011;41619;42.816;23.226;2023-07-22T12:16:01;29.17;;;6.45;;
55314;SDS011;41619;42.816;23.226;2023-07-22T12:18:43;34.40;;;7.00;;
55314;SDS011;41619;42.816;23.226;2023-07-22T12:21:09;21.90;;;6.10;;
55314;SDS011;41619;42.816;23.226;2023-07-22T12:23:36;37.90;;;7.25;;
55314;SDS011;41619;42.816;23.226;2023-07-22T12:26:02;29.40;;;6.50;;
55314;SDS011;41619;42.816;23.226;2023-07-22T12:28:27;38.60;;;6.55;;
55314;SDS011;41619;42.816;23.226;2023-07-22T12:30:52;32.03;;;6.63;;
55314;SDS011;41619;42.816;23.226;2023-07-22T12:33:18;26.15;;;6.00;;
55314;SDS011;41619;42.816;23.226;2023-07-22T12:35:43;37.72;;;7.07;;
55314;SDS011;41619;42.816;23.226;2023-07-22T12:38:08;35.50;;;6.70;;
55314;SDS011;41619;42.816;23.226;2023-07-22T12:40:34;30.20;;;6.28;;
55314;SDS011;41619;42.816;23.226;2023-07-22T12:42:59;34.70;;;6.55;;
55314;SDS011;41619;42.816;23.226;2023-07-22T12:45:25;29.85;;;6.57;;
55314;SDS011;41619;42.816;23.226;2023-07-22T12:47:50;33.63;;;6.93;;
55314;SDS011;41619;42.816;23.226;2023-07-22T12:50:15;31.60;;;6.82;;
55314;SDS011;41619;42.816;23.226;2023-07-22T12:52:41;28.73;;;6.38;;
55314;SDS011;41619;42.816;23.226;2023-07-22T12:55:06;28.60;;;5.93;;
55314;SDS011;41619;42.816;23.226;2023-07-22T12:57:32;29.38;;;6.00;;
55314;SDS011;41619;42.816;23.226;2023-07-22T12:59:58;32.33;;;6.75;;
55314;SDS011;41619;42.816;23.226;2023-07-22T13:02:23;32.45;;;7.07;;
55314;SDS011;41619;42.816;23.226;2023-07-22T13:04:50;33.05;;;6.53;;
55314;SDS011;41619;42.816;23.226;2023-07-22T13:07:15;27.30;;;6.00;;
55314;SDS011;41619;42.816;23.226;2023-07-22T13:09:40;31.48;;;6.88;;
55314;SDS011;41619;42.816;23.226;2023-07-22T13:12:11;34.97;;;6.30;;
55314;SDS011;41619;42.816;23.226;2023-07-22T13:14:36;44.40;;;6.95;;
55314;SDS011;41619;42.816;23.226;2023-07-22T13:17:02;38.50;;;6.45;;
55314;SDS011;41619;42.816;23.226;2023-07-22T13:19:27;44.92;;;7.50;;
55314;SDS011;41619;42.816;23.226;2023-07-22T13:21:52;26.08;;;6.18;;
55314;SDS011;41619;42.816;23.226;2023-07-22T13:24:18;32.97;;;5.95;;
55314;SDS011;41619;42.816;23.226;2023-07-22T13:26:43;32.28;;;6.70;;
55314;SDS011;41619;42.816;23.226;2023-07-22T13:29:09;28.95;;;6.78;;
55314;SDS011;41619;42.816;23.226;2023-07-22T13:31:34;38.58;;;6.97;;
55314;SDS011;41619;42.816;23.226;2023-07-22T13:33:59;36.60;;;6.78;;
55314;SDS011;41619;42.816;23.226;2023-07-22T13:36:25;33.10;;;5.93;;
55314;SDS011;41619;42.816;23.226;2023-07-22T13:38:50;44.33;;;7.32;;
55314;SDS011;41619;42.816;23.226;2023-07-22T13:41:15;24.77;;;5.80;;
55314;SDS011;41619;42.816;23.226;2023-07-22T13:43:41;32.90;;;6.45;;
55314;SDS011;41619;42.816;23.226;2023-07-22T13:46:06;35.63;;;6.10;;
55314;SDS011;41619;42.816;23.226;2023-07-22T13:48:31;29.77;;;6.93;;
55314;SDS011;41619;42.816;23.226;2023-07-22T13:50:57;33.40;;;6.40;;
55314;SDS011;41619;42.816;23.226;2023-07-22T13:53:22;38.03;;;6.18;;
55314;SDS011;41619;42.816;23.226;2023-07-22T13:55:47;33.63;;;6.93;;
55314;SDS011;41619;42.816;23.226;2023-07-22T13:58:13;28.05;;;6.43;;
55314;SDS011;41619;42.816;23.226;2023-07-22T14:00:39;30.88;;;6.20;;
55314;SDS011;41619;42.816;23.226;2023-07-22T14:03:04;30.67;;;5.55;;
55314;SDS011;41619;42.816;23.226;2023-07-22T14:05:29;33.08;;;5.82;;
55314;SDS011;41619;42.816;23.226;2023-07-22T14:07:56;37.20;;;6.35;;
55314;SDS011;41619;42.816;23.226;2023-07-22T14:10:21;43.08;;;7.25;;
55314;SDS011;41619;42.816;23.226;2023-07-22T14:12:46;37.63;;;6.90;;
55314;SDS011;41619;42.816;23.226;2023-07-22T14:15:12;31.20;;;7.05;;
55314;SDS011;41619;42.816;23.226;2023-07-22T14:17:37;33.28;;;6.97;;
55314;SDS011;41619;42.816;23.226;2023-07-22T14:20:04;39.03;;;6.95;;
55314;SDS011;41619;42.816;23.226;2023-07-22T14:22:30;33.67;;;6.35;;
55314;SDS011;41619;42.816;23.226;2023-07-22T14:24:55;46.72;;;7.35;;
55314;SDS011;41619;42.816;23.226;2023-07-22T14:27:21;45.53;;;7.10;;
55314;SDS011;41619;42.816;23.226;2023-07-22T14:29:46;38.72;;;6.18;;
55314;SDS011;41619;42.816;23.226;2023-07-22T14:32:11;35.70;;;6.63;;
55314;SDS011;41619;42.816;23.226;2023-07-22T14:34:37;38.47;;;7.03;;
55314;SDS011;41619;42.816;23.226;2023-07-22T14:37:02;38.17;;;6.18;;
55314;SDS011;41619;42.816;23.226;2023-07-22T14:39:29;28.27;;;6.22;;